PWSweather.com
Personal Weather Stations
Station Observations
948974
Valtournenche, AostaIT 11028

ValtournencheAostaIT 11028

Lat: 45.877222, Lon: 7.625556

Elevation: 5085.3018

Station Type: PCE-FWS 20

http://www.cdso.it

High Low Average
Temperature 48.6°F9.2°C 29.7°F-1.3°C 37.4°F3.0°C
Dew Point 20.9°F-6.2°C 8.9°F-12.8°C 15.7°F-9.1°C
Winds 10.0 mph 16.1 kmh Calm Calm 4.0 mph E6.4 kmh E
Wind Gusts 15.0 mph24.1 kmh 1.0 mph1.6 kmh 6.0 mph9.7 kmh
Humidity 55% 28% 42%
Pressure 30.25 in1024.4 mb 29.94 in1013.9 mb -
Precipitation 0.00 in0.0 mm - -
Hour Temp Dew Point Humidity Winds Wind Gusts Pressure Precip Precip Rate Daily Precip Total
12:02 AM 33.8°F1.0°C 10.3°F-12.1°C 37% 7.0 mph NE11.3 kmh NE 9.0 mph14.5 kmh 29.98 in1015.2 mb 0.00 in0.0 mm 0.00 in0.0 mm 0.00 in0.0 mm
12:23 AM 32.4°F0.2°C 13.4°F-10.3°C 45% 4.0 mph NE6.4 kmh NE 8.0 mph12.9 kmh 30.00 in1015.9 mb 0.00 in0.0 mm 0.00 in0.0 mm 0.00 in0.0 mm
12:44 AM 33.3°F0.7°C 12.1°F-11.1°C 41% 4.0 mph NE6.4 kmh NE 7.0 mph11.3 kmh 29.99 in1015.6 mb 0.00 in0.0 mm 0.00 in0.0 mm 0.00 in0.0 mm
01:05 AM 32.4°F0.2°C 12.9°F-10.6°C 44% 3.0 mph 4.8 kmh 4.0 mph6.4 kmh 30.00 in1015.9 mb 0.00 in0.0 mm 0.00 in0.0 mm 0.00 in0.0 mm
01:26 AM 33.1°F0.6°C 11.4°F-11.4°C 40% 6.0 mph NE9.7 kmh NE 9.0 mph14.5 kmh 30.00 in1015.9 mb 0.00 in0.0 mm 0.00 in0.0 mm 0.00 in0.0 mm
01:47 AM 33.1°F0.6°C 10.3°F-12.1°C 38% 8.0 mph 12.9 kmh 9.0 mph14.5 kmh 30.00 in1015.9 mb 0.00 in0.0 mm 0.00 in0.0 mm 0.00 in0.0 mm
02:08 AM 30.6°F-0.8°C 12.3°F-10.9°C 46% 2.0 mph 3.2 kmh 4.0 mph6.4 kmh 30.04 in1017.3 mb 0.00 in0.0 mm 0.00 in0.0 mm 0.00 in0.0 mm
02:29 AM 32.0°F0.0°C 12.1°F-11.1°C 43% 5.0 mph 8.0 kmh 8.0 mph12.9 kmh 30.03 in1016.9 mb 0.00 in0.0 mm 0.00 in0.0 mm 0.00 in0.0 mm
02:50 AM 32.7°F0.4°C 9.4°F-12.6°C 37% 10.0 mph NW16.1 kmh NW 13.0 mph20.9 kmh 30.02 in1016.6 mb 0.00 in0.0 mm 0.00 in0.0 mm 0.00 in0.0 mm
03:11 AM 32.4°F0.2°C 9.6°F-12.4°C 38% 6.0 mph NW9.7 kmh NW 9.0 mph14.5 kmh 30.02 in1016.6 mb 0.00 in0.0 mm 0.00 in0.0 mm 0.00 in0.0 mm
03:32 AM 32.2°F0.1°C 8.9°F-12.8°C 37% 4.0 mph NW6.4 kmh NW 6.0 mph9.7 kmh 30.02 in1016.6 mb 0.00 in0.0 mm 0.00 in0.0 mm 0.00 in0.0 mm
03:53 AM 31.6°F-0.2°C 11.7°F-11.3°C 43% 4.0 mph NW6.4 kmh NW 5.0 mph8.0 kmh 30.03 in1016.9 mb 0.00 in0.0 mm 0.00 in0.0 mm 0.00 in0.0 mm
04:14 AM 32.0°F0.0°C 11.0°F-11.7°C 41% 4.0 mph NW6.4 kmh NW 7.0 mph11.3 kmh 30.03 in1016.9 mb 0.00 in0.0 mm 0.00 in0.0 mm 0.00 in0.0 mm
04:35 AM 31.1°F-0.5°C 12.3°F-10.9°C 45% 5.0 mph NW8.0 kmh NW 8.0 mph12.9 kmh 30.05 in1017.6 mb 0.00 in0.0 mm 0.00 in0.0 mm 0.00 in0.0 mm
04:56 AM 31.5°F-0.3°C 12.1°F-11.1°C 44% 8.0 mph 12.9 kmh 9.0 mph14.5 kmh 30.04 in1017.3 mb 0.00 in0.0 mm 0.00 in0.0 mm 0.00 in0.0 mm
05:17 AM 31.1°F-0.5°C 12.3°F-10.9°C 45% 4.0 mph 6.4 kmh 5.0 mph8.0 kmh 30.06 in1017.9 mb 0.00 in0.0 mm 0.00 in0.0 mm 0.00 in0.0 mm
05:38 AM 31.5°F-0.3°C 13.1°F-10.5°C 46% 5.0 mph WNW8.0 kmh WNW 7.0 mph11.3 kmh 30.05 in1017.6 mb 0.00 in0.0 mm 0.00 in0.0 mm 0.00 in0.0 mm
05:59 AM 29.7°F-1.3°C 14.2°F-9.9°C 52% 6.0 mph 9.7 kmh 9.0 mph14.5 kmh 30.08 in1018.6 mb 0.00 in0.0 mm 0.00 in0.0 mm 0.00 in0.0 mm
06:20 AM 32.0°F0.0°C 12.6°F-10.8°C 44% 5.0 mph 8.0 kmh 8.0 mph12.9 kmh 30.06 in1017.9 mb 0.00 in0.0 mm 0.00 in0.0 mm 0.00 in0.0 mm
06:41 AM 32.0°F0.0°C 12.6°F-10.8°C 44% 6.0 mph 9.7 kmh 11.0 mph17.7 kmh 30.06 in1017.9 mb 0.00 in0.0 mm 0.00 in0.0 mm 0.00 in0.0 mm
07:02 AM 31.8°F-0.1°C 13.9°F-10.1°C 47% 4.0 mph 6.4 kmh 7.0 mph11.3 kmh 30.07 in1018.3 mb 0.00 in0.0 mm 0.00 in0.0 mm 0.00 in0.0 mm
07:23 AM 30.2°F-1.0°C 13.8°F-10.1°C 50% 4.0 mph 6.4 kmh 6.0 mph9.7 kmh 30.09 in1019.0 mb 0.00 in0.0 mm 0.00 in0.0 mm 0.00 in0.0 mm
07:44 AM 30.4°F-0.9°C 14.9°F-9.5°C 52% 4.0 mph 6.4 kmh 9.0 mph14.5 kmh 30.10 in1019.3 mb 0.00 in0.0 mm 0.00 in0.0 mm 0.00 in0.0 mm
08:05 AM 32.2°F0.1°C 13.3°F-10.4°C 45% 8.0 mph 12.9 kmh 11.0 mph17.7 kmh 30.08 in1018.6 mb 0.00 in0.0 mm 0.00 in0.0 mm 0.00 in0.0 mm
08:26 AM 32.0°F0.0°C 13.6°F-10.2°C 46% 4.0 mph 6.4 kmh 4.0 mph6.4 kmh 30.09 in1019.0 mb 0.00 in0.0 mm 0.00 in0.0 mm 0.00 in0.0 mm
08:47 AM 30.6°F-0.8°C 15.9°F-8.9°C 54% 4.0 mph 6.4 kmh 5.0 mph8.0 kmh 30.11 in1019.6 mb 0.00 in0.0 mm 0.00 in0.0 mm 0.00 in0.0 mm
09:08 AM 31.8°F-0.1°C 17.1°F-8.3°C 54% 3.0 mph 4.8 kmh 5.0 mph8.0 kmh 30.11 in1019.6 mb 0.00 in0.0 mm 0.00 in0.0 mm 0.00 in0.0 mm
09:29 AM 37.0°F2.8°C 17.2°F-8.2°C 44% 4.0 mph 6.4 kmh 5.0 mph8.0 kmh 30.05 in1017.6 mb 0.00 in0.0 mm 0.00 in0.0 mm 0.00 in0.0 mm
09:50 AM 39.2°F4.0°C 16.3°F-8.7°C 39% 5.0 mph 8.0 kmh 7.0 mph11.3 kmh 30.03 in1016.9 mb 0.00 in0.0 mm 0.00 in0.0 mm 0.00 in0.0 mm
10:11 AM 41.2°F5.1°C 17.5°F-8.1°C 38% 3.0 mph 4.8 kmh 4.0 mph6.4 kmh 30.01 in1016.3 mb 0.00 in0.0 mm 0.00 in0.0 mm 0.00 in0.0 mm
10:32 AM 44.1°F6.7°C 16.8°F-8.4°C 33% 2.0 mph 3.2 kmh 3.0 mph4.8 kmh 29.98 in1015.2 mb 0.00 in0.0 mm 0.00 in0.0 mm 0.00 in0.0 mm
10:53 AM 43.5°F6.4°C 13.4°F-10.3°C 29% 2.0 mph 3.2 kmh 3.0 mph4.8 kmh 30.00 in1015.9 mb 0.00 in0.0 mm 0.00 in0.0 mm 0.00 in0.0 mm
11:14 AM 46.2°F7.9°C 14.9°F-9.5°C 28% Calm Calm 2.0 mph3.2 kmh 29.97 in1014.9 mb 0.00 in0.0 mm 0.00 in0.0 mm 0.00 in0.0 mm
11:35 AM 47.5°F8.6°C 16.0°F-8.9°C 28% 3.0 mph SW4.8 kmh SW 5.0 mph8.0 kmh 29.96 in1014.6 mb 0.00 in0.0 mm 0.00 in0.0 mm 0.00 in0.0 mm
11:56 AM 45.5°F7.5°C 14.3°F-9.8°C 28% 3.0 mph E4.8 kmh E 4.0 mph6.4 kmh 29.98 in1015.2 mb 0.00 in0.0 mm 0.00 in0.0 mm 0.00 in0.0 mm
12:17 PM 45.1°F7.3°C 17.1°F-8.3°C 32% 4.0 mph S6.4 kmh S 5.0 mph8.0 kmh 29.99 in1015.6 mb 0.00 in0.0 mm 0.00 in0.0 mm 0.00 in0.0 mm
12:38 PM 47.7°F8.7°C 18.5°F-7.5°C 31% 1.0 mph S1.6 kmh S 2.0 mph3.2 kmh 29.96 in1014.6 mb 0.00 in0.0 mm 0.00 in0.0 mm 0.00 in0.0 mm
12:59 PM 47.1°F8.4°C 17.3°F-8.2°C 30% 2.0 mph 3.2 kmh 2.0 mph3.2 kmh 29.97 in1014.9 mb 0.00 in0.0 mm 0.00 in0.0 mm 0.00 in0.0 mm
01:20 PM 45.5°F7.5°C 16.6°F-8.6°C 31% 1.0 mph 1.6 kmh 3.0 mph4.8 kmh 29.99 in1015.6 mb 0.00 in0.0 mm 0.00 in0.0 mm 0.00 in0.0 mm
01:41 PM 46.2°F7.9°C 17.3°F-8.2°C 31% 3.0 mph 4.8 kmh 5.0 mph8.0 kmh 29.97 in1014.9 mb 0.00 in0.0 mm 0.00 in0.0 mm 0.00 in0.0 mm
02:02 PM 46.2°F7.9°C 17.3°F-8.2°C 31% Calm Calm 1.0 mph1.6 kmh 29.96 in1014.6 mb 0.00 in0.0 mm 0.00 in0.0 mm 0.00 in0.0 mm
02:21 PM 46.4°F8.0°C 16.8°F-8.4°C 30% 2.0 mph NW3.2 kmh NW 4.0 mph6.4 kmh 29.96 in1014.6 mb 0.00 in0.0 mm 0.00 in0.0 mm 0.00 in0.0 mm
02:42 PM 46.8°F8.2°C 17.7°F-7.9°C 31% 2.0 mph SW3.2 kmh SW 4.0 mph6.4 kmh 29.95 in1014.2 mb 0.00 in0.0 mm 0.00 in0.0 mm 0.00 in0.0 mm
03:03 PM 47.1°F8.4°C 17.4°F-8.1°C 30% 2.0 mph SW3.2 kmh SW 4.0 mph6.4 kmh 29.95 in1014.2 mb 0.00 in0.0 mm 0.00 in0.0 mm 0.00 in0.0 mm
03:21 PM 48.6°F9.2°C 17.8°F-7.9°C 29% 3.0 mph SE4.8 kmh SE 7.0 mph11.3 kmh 29.94 in1013.9 mb 0.00 in0.0 mm 0.00 in0.0 mm 0.00 in0.0 mm
03:42 PM 48.1°F8.9°C 16.7°F-8.5°C 28% 7.0 mph SE11.3 kmh SE 15.0 mph24.1 kmh 29.95 in1014.2 mb 0.00 in0.0 mm 0.00 in0.0 mm 0.00 in0.0 mm
04:03 PM 44.9°F7.2°C 15.4°F-9.2°C 30% 6.0 mph SE9.7 kmh SE 8.0 mph12.9 kmh 29.99 in1015.6 mb 0.00 in0.0 mm 0.00 in0.0 mm 0.00 in0.0 mm
04:21 PM 44.7°F7.1°C 16.1°F-8.8°C 31% 3.0 mph SSE4.8 kmh SSE 8.0 mph12.9 kmh 30.00 in1015.9 mb 0.00 in0.0 mm 0.00 in0.0 mm 0.00 in0.0 mm
04:42 PM 44.8°F7.1°C 17.0°F-8.3°C 32% 3.0 mph SSE4.8 kmh SSE 6.0 mph9.7 kmh 29.99 in1015.6 mb 0.00 in0.0 mm 0.00 in0.0 mm 0.00 in0.0 mm
05:03 PM 43.7°F6.5°C 19.1°F-7.2°C 37% 3.0 mph SSE4.8 kmh SSE 8.0 mph12.9 kmh 30.01 in1016.3 mb 0.00 in0.0 mm 0.00 in0.0 mm 0.00 in0.0 mm
05:21 PM 43.3°F6.3°C 19.6°F-6.9°C 38% 3.0 mph SSE4.8 kmh SSE 8.0 mph12.9 kmh 30.02 in1016.6 mb 0.00 in0.0 mm 0.00 in0.0 mm 0.00 in0.0 mm
05:42 PM 42.9°F6.1°C 19.7°F-6.8°C 39% 1.0 mph SSE1.6 kmh SSE 6.0 mph9.7 kmh 30.03 in1016.9 mb 0.00 in0.0 mm 0.00 in0.0 mm 0.00 in0.0 mm
06:03 PM 41.7°F5.4°C 20.6°F-6.3°C 43% 2.0 mph SSE3.2 kmh SSE 4.0 mph6.4 kmh 30.05 in1017.6 mb 0.00 in0.0 mm 0.00 in0.0 mm 0.00 in0.0 mm
06:21 PM 40.4°F4.7°C 20.9°F-6.2°C 45% 2.0 mph SSE3.2 kmh SSE 4.0 mph6.4 kmh 30.08 in1018.6 mb 0.00 in0.0 mm 0.00 in0.0 mm 0.00 in0.0 mm
07:03 PM 37.5°F3.1°C 20.5°F-6.4°C 50% 2.0 mph E3.2 kmh E 5.0 mph8.0 kmh 30.13 in1020.3 mb 0.00 in0.0 mm 0.00 in0.0 mm 0.00 in0.0 mm
07:21 PM 36.6°F2.6°C 18.1°F-7.7°C 47% 1.0 mph NE1.6 kmh NE 3.0 mph4.8 kmh 30.15 in1021.0 mb 0.00 in0.0 mm 0.00 in0.0 mm 0.00 in0.0 mm
07:42 PM 35.3°F1.8°C 18.5°F-7.5°C 50% 2.0 mph NE3.2 kmh NE 5.0 mph8.0 kmh 30.18 in1022.0 mb 0.00 in0.0 mm 0.00 in0.0 mm 0.00 in0.0 mm
08:03 PM 34.5°F1.4°C 18.8°F-7.3°C 52% 2.0 mph NE3.2 kmh NE 6.0 mph9.7 kmh 30.19 in1022.4 mb 0.00 in0.0 mm 0.00 in0.0 mm 0.00 in0.0 mm
08:21 PM 34.3°F1.3°C 18.9°F-7.3°C 53% 3.0 mph NE4.8 kmh NE 6.0 mph9.7 kmh 30.20 in1022.7 mb 0.00 in0.0 mm 0.00 in0.0 mm 0.00 in0.0 mm
08:42 PM 33.3°F0.7°C 18.6°F-7.4°C 54% 3.0 mph ENE4.8 kmh ENE 4.0 mph6.4 kmh 30.21 in1023.0 mb 0.00 in0.0 mm 0.00 in0.0 mm 0.00 in0.0 mm
09:03 PM 33.4°F0.8°C 18.9°F-7.3°C 55% 3.0 mph NNE4.8 kmh NNE 5.0 mph8.0 kmh 30.22 in1023.4 mb 0.00 in0.0 mm 0.00 in0.0 mm 0.00 in0.0 mm
09:21 PM 33.4°F0.8°C 18.9°F-7.3°C 55% 2.0 mph E3.2 kmh E 6.0 mph9.7 kmh 30.23 in1023.7 mb 0.00 in0.0 mm 0.00 in0.0 mm 0.00 in0.0 mm
09:42 PM 34.8°F1.6°C 19.1°F-7.2°C 52% 4.0 mph ENE6.4 kmh ENE 6.0 mph9.7 kmh 30.21 in1023.0 mb 0.00 in0.0 mm 0.00 in0.0 mm 0.00 in0.0 mm
10:03 PM 34.3°F1.3°C 18.8°F-7.3°C 53% 2.0 mph E3.2 kmh E 4.0 mph6.4 kmh 30.22 in1023.4 mb 0.00 in0.0 mm 0.00 in0.0 mm 0.00 in0.0 mm
10:21 PM 34.0°F1.1°C 18.9°F-7.3°C 54% 3.0 mph E4.8 kmh E 8.0 mph12.9 kmh 30.23 in1023.7 mb 0.00 in0.0 mm 0.00 in0.0 mm 0.00 in0.0 mm
10:42 PM 32.6°F0.3°C 18.4°F-7.6°C 55% 2.0 mph E3.2 kmh E 4.0 mph6.4 kmh 30.24 in1024.0 mb 0.00 in0.0 mm 0.00 in0.0 mm 0.00 in0.0 mm
11:03 PM 33.9°F1.1°C 18.5°F-7.5°C 53% 5.0 mph NNE8.0 kmh NNE 8.0 mph12.9 kmh 30.23 in1023.7 mb 0.00 in0.0 mm 0.00 in0.0 mm 0.00 in0.0 mm
11:21 PM 33.8°F1.0°C 17.7°F-7.9°C 51% 5.0 mph 8.0 kmh 8.0 mph12.9 kmh 30.24 in1024.0 mb 0.00 in0.0 mm 0.00 in0.0 mm 0.00 in0.0 mm
11:42 PM 33.1°F0.6°C 17.9°F-7.8°C 53% 4.0 mph 6.4 kmh 6.0 mph9.7 kmh 30.25 in1024.4 mb 0.00 in0.0 mm 0.00 in0.0 mm 0.00 in0.0 mm